Portada
METAR-TAF:

METAR-TAF

Aeroports :

Luang Prabang, Laos

latitud: 19-53N, longitud: 102-08E, altitud: 305 m

Observació

L'informe es va fer fa 1 hora i 13 minuts, a les 01:00 UTC
Vent calma
Temperatura 28°C
Humitat 66%
Pressió 1009 hPa
Visibilitat 10 km o més
Escasses núvols a una alçada de 2000 ft

METAR: VLLB 270100Z 00000KT 9999 FEW020 28/21 Q1009 NOSIG

Hora: 09:13 (02:13 UTC)

Pronòstic

L'informe es va fer fa 3 hores i 13 minuts, a les 23:00 UTC
Pronòstic vàlid del 27 a les 00 UTC al 27 a les 24 UTC
Vent 4 kt del Sud-Oest
Visibilitat 10 km o més
Escasses núvols a una alçada de 2000 ft
Escasses núvols a una alçada de 6000 ft

TAF: VLLB 262300Z 2700/2724 22004KT 9999 FEW020 FEW060

Observacions i pronòstics meteorològics de més de 4000 aeroports (METAR i TAF).

Les estacions disponibles són els punts grocs i vermells al mapa.

Posi el ratolí al punt desitjat per veure el nom de l'estació.

Feu clic per veure les observacions i els pronòstics meteorològics.

Per canviar el mapa: feu clic els botons verds amb una creu de color negre per apropar; al botó verd amb un guió per allunyar la imatge; o en les fletxes verdes per a mapes adjacents.


METAR-TAF: